Startpagina
METAR-TAF:

METAR-TAF

Vliegvelden :

Peking, China

Internationale Luchthaven van Peking

breedte: 39-56N, lengte: 116-17E, hoogte: 55 m

Actueel weer

Dit bericht is 26 minuten geleden gemaakt, om 12:30 UTC
Wind 8 kt uit het noordwesten, variërend tussen het westnoordwesten en het noorden
Temperatuur 2°C
Vochtigheid 21%
Druk 1027 hPa
Zicht 10 km of meer
geen wolken onder 1500 m en geen cumulonimbus

METAR: ZBAA 221230Z 32004MPS 290V350 CAVOK 02/M18 Q1027 NOSIG

Tijdstip: 20:56 (12:56 UTC)

Verwachting

Dit bericht is 3 uur en het 36 minuten geleden gemaakt, om 09:20 UTC
Verwachting geldig van 22 om 12 UTC tot 23 om 12 UTC
Wind 8 kt uit het westen
Zicht 10 km of meer
geen wolken onder 1500 m en geen cumulonimbus
Tijdelijke
van 23 om 03 UTC tot 23 om 09 UTC
Wind 17 kt uit het westen met uitschieters tot 27 kt

TAF: ZBAA 220920Z 2212/2312 27004MPS CAVOK TX06/2307Z TNM05/21Z TEMPO 2303/2309 27009G14MPS

Waarnemingen en weersverwachtingen van meer dan 4000 vliegvelden (METAR en TAF).

De beschikbare stations zijn de gele en rode punten op de kaart.

Ga met uw muis naar het station om de naam te zien.

Klik dan om waarnemingen en weersverwachtingen te zien.

kaart wijzigen: klik op de groene knoppen met een zwart kruis om in te zoomen, op de groene knop met een streepje om uit te zoomen of op de groene pijlen voor aangrenzende kaarten.


METAR-TAF: